sensor_id;sensor_type;location;lat;lon;timestamp;temperature;humidity
20957;DHT22;10637;47.970;7.830;2023-12-20T00:04:17;7.90;99.90
20957;DHT22;10637;47.970;7.830;2023-12-20T00:09:19;7.90;99.90
20957;DHT22;10637;47.970;7.830;2023-12-20T00:14:21;7.90;99.90
20957;DHT22;10637;47.970;7.830;2023-12-20T00:19:22;7.90;99.90
20957;DHT22;10637;47.970;7.830;2023-12-20T00:24:24;7.90;99.90
20957;DHT22;10637;47.970;7.830;2023-12-20T00:29:26;7.90;99.90
20957;DHT22;10637;47.970;7.830;2023-12-20T00:34:28;7.80;99.90
20957;DHT22;10637;47.970;7.830;2023-12-20T00:39:29;7.80;99.90
20957;DHT22;10637;47.970;7.830;2023-12-20T00:44:32;7.80;99.90
20957;DHT22;10637;47.970;7.830;2023-12-20T00:49:33;7.70;99.90
20957;DHT22;10637;47.970;7.830;2023-12-20T00:54:36;7.60;99.90
20957;DHT22;10637;47.970;7.830;2023-12-20T00:59:37;7.40;99.90
20957;DHT22;10637;47.970;7.830;2023-12-20T01:04:39;7.20;99.90
20957;DHT22;10637;47.970;7.830;2023-12-20T01:09:41;7.10;99.90
20957;DHT22;10637;47.970;7.830;2023-12-20T01:14:43;7.00;99.90
20957;DHT22;10637;47.970;7.830;2023-12-20T01:19:44;7.00;99.90
20957;DHT22;10637;47.970;7.830;2023-12-20T01:24:46;6.90;99.90
20957;DHT22;10637;47.970;7.830;2023-12-20T01:29:48;6.90;99.90
20957;DHT22;10637;47.970;7.830;2023-12-20T01:34:50;6.80;99.90
20957;DHT22;10637;47.970;7.830;2023-12-20T01:39:52;6.80;99.90
20957;DHT22;10637;47.970;7.830;2023-12-20T01:44:54;6.80;99.90
20957;DHT22;10637;47.970;7.830;2023-12-20T01:49:56;6.80;99.90
20957;DHT22;10637;47.970;7.830;2023-12-20T01:54:58;6.80;99.90
20957;DHT22;10637;47.970;7.830;2023-12-20T02:00:05;6.80;99.90
20957;DHT22;10637;47.970;7.830;2023-12-20T02:05:07;6.70;99.90
20957;DHT22;10637;47.970;7.830;2023-12-20T02:10:10;6.80;99.90
20957;DHT22;10637;47.970;7.830;2023-12-20T02:15:11;6.70;99.90
20957;DHT22;10637;47.970;7.830;2023-12-20T02:20:13;6.80;99.90
20957;DHT22;10637;47.970;7.830;2023-12-20T02:25:16;6.80;99.90
20957;DHT22;10637;47.970;7.830;2023-12-20T02:30:17;6.80;99.90
20957;DHT22;10637;47.970;7.830;2023-12-20T02:35:19;6.70;99.90
20957;DHT22;10637;47.970;7.830;2023-12-20T02:40:21;6.70;99.90
20957;DHT22;10637;47.970;7.830;2023-12-20T02:45:23;6.70;99.90
20957;DHT22;10637;47.970;7.830;2023-12-20T02:50:25;6.70;99.90
20957;DHT22;10637;47.970;7.830;2023-12-20T02:55:26;6.60;99.90
20957;DHT22;10637;47.970;7.830;2023-12-20T03:00:28;6.60;99.90
20957;DHT22;10637;47.970;7.830;2023-12-20T03:05:30;6.60;99.90
20957;DHT22;10637;47.970;7.830;2023-12-20T03:10:32;6.60;99.90
20957;DHT22;10637;47.970;7.830;2023-12-20T03:15:34;6.60;99.90
20957;DHT22;10637;47.970;7.830;2023-12-20T03:20:36;6.60;99.90
20957;DHT22;10637;47.970;7.830;2023-12-20T03:25:38;6.60;99.90
20957;DHT22;10637;47.970;7.830;2023-12-20T03:30:40;6.60;99.90
20957;DHT22;10637;47.970;7.830;2023-12-20T03:35:41;6.50;99.90
20957;DHT22;10637;47.970;7.830;2023-12-20T03:40:43;6.50;99.90
20957;DHT22;10637;47.970;7.830;2023-12-20T03:45:45;6.50;99.90
20957;DHT22;10637;47.970;7.830;2023-12-20T03:50:47;6.50;99.90
20957;DHT22;10637;47.970;7.830;2023-12-20T03:55:49;6.50;99.90
20957;DHT22;10637;47.970;7.830;2023-12-20T04:00:51;6.50;99.90
20957;DHT22;10637;47.970;7.830;2023-12-20T04:05:53;6.50;99.90
20957;DHT22;10637;47.970;7.830;2023-12-20T04:10:54;6.50;99.90
20957;DHT22;10637;47.970;7.830;2023-12-20T04:15:56;6.50;99.90
20957;DHT22;10637;47.970;7.830;2023-12-20T04:20:58;6.50;99.90
20957;DHT22;10637;47.970;7.830;2023-12-20T04:26:00;6.50;99.90
20957;DHT22;10637;47.970;7.830;2023-12-20T04:31:01;6.60;99.90
20957;DHT22;10637;47.970;7.830;2023-12-20T04:36:04;6.60;99.90
20957;DHT22;10637;47.970;7.830;2023-12-20T04:41:06;6.60;99.90
20957;DHT22;10637;47.970;7.830;2023-12-20T04:46:07;6.60;99.90
20957;DHT22;10637;47.970;7.830;2023-12-20T04:51:09;6.60;99.90
20957;DHT22;10637;47.970;7.830;2023-12-20T04:56:11;6.70;99.90
20957;DHT22;10637;47.970;7.830;2023-12-20T05:01:13;6.70;99.90
20957;DHT22;10637;47.970;7.830;2023-12-20T05:06:15;6.70;99.90
20957;DHT22;10637;47.970;7.830;2023-12-20T05:11:17;6.70;99.90
20957;DHT22;10637;47.970;7.830;2023-12-20T05:16:18;6.70;99.90
20957;DHT22;10637;47.970;7.830;2023-12-20T05:21:21;6.70;99.90
20957;DHT22;10637;47.970;7.830;2023-12-20T05:26:22;6.70;99.90
20957;DHT22;10637;47.970;7.830;2023-12-20T05:31:24;6.70;99.90
20957;DHT22;10637;47.970;7.830;2023-12-20T05:36:26;6.80;99.90
20957;DHT22;10637;47.970;7.830;2023-12-20T05:41:28;6.80;99.90
20957;DHT22;10637;47.970;7.830;2023-12-20T05:46:29;6.80;99.90
20957;DHT22;10637;47.970;7.830;2023-12-20T05:51:31;6.80;99.90
20957;DHT22;10637;47.970;7.830;2023-12-20T05:56:33;6.80;99.90
20957;DHT22;10637;47.970;7.830;2023-12-20T06:01:34;6.90;99.90
20957;DHT22;10637;47.970;7.830;2023-12-20T06:06:43;6.90;99.90
20957;DHT22;10637;47.970;7.830;2023-12-20T06:11:45;6.90;99.90
20957;DHT22;10637;47.970;7.830;2023-12-20T06:16:47;6.90;99.90
20957;DHT22;10637;47.970;7.830;2023-12-20T06:21:49;6.90;99.90
20957;DHT22;10637;47.970;7.830;2023-12-20T06:26:50;7.00;99.90
20957;DHT22;10637;47.970;7.830;2023-12-20T06:31:52;7.00;99.90
20957;DHT22;10637;47.970;7.830;2023-12-20T06:36:54;7.00;99.90
20957;DHT22;10637;47.970;7.830;2023-12-20T06:41:56;7.00;99.90
20957;DHT22;10637;47.970;7.830;2023-12-20T06:46:57;7.10;99.90
20957;DHT22;10637;47.970;7.830;2023-12-20T06:51:59;7.00;99.90
20957;DHT22;10637;47.970;7.830;2023-12-20T06:57:01;7.00;99.90
20957;DHT22;10637;47.970;7.830;2023-12-20T07:02:04;7.10;99.90
20957;DHT22;10637;47.970;7.830;2023-12-20T07:07:07;7.10;99.90
20957;DHT22;10637;47.970;7.830;2023-12-20T07:12:09;7.10;99.90
20957;DHT22;10637;47.970;7.830;2023-12-20T07:17:11;7.00;99.90
20957;DHT22;10637;47.970;7.830;2023-12-20T07:22:13;7.00;99.90
20957;DHT22;10637;47.970;7.830;2023-12-20T07:27:15;7.00;99.90
20957;DHT22;10637;47.970;7.830;2023-12-20T07:32:17;7.10;99.90
20957;DHT22;10637;47.970;7.830;2023-12-20T07:37:19;7.20;99.90
20957;DHT22;10637;47.970;7.830;2023-12-20T07:42:21;7.10;99.90
20957;DHT22;10637;47.970;7.830;2023-12-20T07:47:24;7.10;99.90
20957;DHT22;10637;47.970;7.830;2023-12-20T07:52:26;7.10;99.90
20957;DHT22;10637;47.970;7.830;2023-12-20T07:57:29;7.10;99.90
20957;DHT22;10637;47.970;7.830;2023-12-20T08:02:31;7.20;99.90
20957;DHT22;10637;47.970;7.830;2023-12-20T08:07:33;7.20;99.90
20957;DHT22;10637;47.970;7.830;2023-12-20T08:12:35;7.20;99.90
20957;DHT22;10637;47.970;7.830;2023-12-20T08:17:37;7.20;99.90
20957;DHT22;10637;47.970;7.830;2023-12-20T08:22:38;7.10;99.90
20957;DHT22;10637;47.970;7.830;2023-12-20T08:27:40;7.20;99.90
20957;DHT22;10637;47.970;7.830;2023-12-20T08:32:43;7.20;99.90
20957;DHT22;10637;47.970;7.830;2023-12-20T08:37:45;7.30;99.90
20957;DHT22;10637;47.970;7.830;2023-12-20T08:42:47;7.40;99.90
20957;DHT22;10637;47.970;7.830;2023-12-20T08:47:49;7.40;99.90
20957;DHT22;10637;47.970;7.830;2023-12-20T08:52:52;7.50;99.90
20957;DHT22;10637;47.970;7.830;2023-12-20T08:57:53;7.50;99.90
20957;DHT22;10637;47.970;7.830;2023-12-20T09:02:55;7.60;99.90
20957;DHT22;10637;47.970;7.830;2023-12-20T09:07:57;7.80;99.90
20957;DHT22;10637;47.970;7.830;2023-12-20T09:12:59;7.80;99.90
20957;DHT22;10637;47.970;7.830;2023-12-20T09:18:01;7.80;99.90
20957;DHT22;10637;47.970;7.830;2023-12-20T09:23:03;7.80;99.90
20957;DHT22;10637;47.970;7.830;2023-12-20T09:28:05;7.80;99.90
20957;DHT22;10637;47.970;7.830;2023-12-20T09:33:07;7.90;99.90
20957;DHT22;10637;47.970;7.830;2023-12-20T09:38:10;7.90;99.90
20957;DHT22;10637;47.970;7.830;2023-12-20T09:43:14;7.70;99.90
20957;DHT22;10637;47.970;7.830;2023-12-20T09:48:18;7.70;99.90
20957;DHT22;10637;47.970;7.830;2023-12-20T09:53:21;7.50;99.90
20957;DHT22;10637;47.970;7.830;2023-12-20T09:58:25;7.70;99.90
20957;DHT22;10637;47.970;7.830;2023-12-20T10:03:27;7.70;99.90
20957;DHT22;10637;47.970;7.830;2023-12-20T10:08:29;7.80;99.90
20957;DHT22;10637;47.970;7.830;2023-12-20T10:13:31;7.90;99.90
20957;DHT22;10637;47.970;7.830;2023-12-20T10:18:33;8.20;99.90
20957;DHT22;10637;47.970;7.830;2023-12-20T10:23:40;8.00;99.90
20957;DHT22;10637;47.970;7.830;2023-12-20T10:28:42;8.00;99.90
20957;DHT22;10637;47.970;7.830;2023-12-20T10:33:44;8.00;99.90
20957;DHT22;10637;47.970;7.830;2023-12-20T10:38:46;8.00;99.90
20957;DHT22;10637;47.970;7.830;2023-12-20T10:43:52;8.00;99.90
20957;DHT22;10637;47.970;7.830;2023-12-20T10:48:54;8.10;99.90
20957;DHT22;10637;47.970;7.830;2023-12-20T10:53:56;8.40;99.90
20957;DHT22;10637;47.970;7.830;2023-12-20T10:59:02;8.30;99.90
20957;DHT22;10637;47.970;7.830;2023-12-20T11:04:08;8.30;99.90
20957;DHT22;10637;47.970;7.830;2023-12-20T11:09:17;8.50;99.90
20957;DHT22;10637;47.970;7.830;2023-12-20T11:14:50;8.70;99.90
20957;DHT22;10637;47.970;7.830;2023-12-20T11:25:08;9.80;99.90
20957;DHT22;10637;47.970;7.830;2023-12-20T11:30:11;11.10;99.90
20957;DHT22;10637;47.970;7.830;2023-12-20T11:40:16;16.10;99.90
20957;DHT22;10637;47.970;7.830;2023-12-20T11:45:20;19.20;99.90
20957;DHT22;10637;47.970;7.830;2023-12-20T11:50:24;20.00;99.90
20957;DHT22;10637;47.970;7.830;2023-12-20T11:55:26;21.00;96.30
20957;DHT22;10637;47.970;7.830;2023-12-20T12:00:28;22.70;91.60
20957;DHT22;10637;47.970;7.830;2023-12-20T12:05:31;21.60;90.80
20957;DHT22;10637;47.970;7.830;2023-12-20T12:10:34;22.00;90.50
20957;DHT22;10637;47.970;7.830;2023-12-20T12:15:36;23.30;85.00
20957;DHT22;10637;47.970;7.830;2023-12-20T12:20:39;23.40;83.20
20957;DHT22;10637;47.970;7.830;2023-12-20T12:25:41;22.90;81.30
20957;DHT22;10637;47.970;7.830;2023-12-20T12:30:57;24.00;78.90
20957;DHT22;10637;47.970;7.830;2023-12-20T12:36:00;24.20;78.20
20957;DHT22;10637;47.970;7.830;2023-12-20T12:41:03;23.30;76.70
20957;DHT22;10637;47.970;7.830;2023-12-20T12:46:05;24.00;72.40
20957;DHT22;10637;47.970;7.830;2023-12-20T12:51:06;20.30;77.90
20957;DHT22;10637;47.970;7.830;2023-12-20T12:56:14;17.80;84.00
20957;DHT22;10637;47.970;7.830;2023-12-20T13:01:16;15.00;90.60
20957;DHT22;10637;47.970;7.830;2023-12-20T13:06:18;13.90;93.90
20957;DHT22;10637;47.970;7.830;2023-12-20T13:11:20;13.60;93.60
20957;DHT22;10637;47.970;7.830;2023-12-20T13:16:23;13.70;95.50
20957;DHT22;10637;47.970;7.830;2023-12-20T13:21:25;13.10;94.40
20957;DHT22;10637;47.970;7.830;2023-12-20T13:26:26;12.10;96.40
20957;DHT22;10637;47.970;7.830;2023-12-20T13:31:28;10.80;98.40
20957;DHT22;10637;47.970;7.830;2023-12-20T13:36:30;10.40;99.90
20957;DHT22;10637;47.970;7.830;2023-12-20T13:41:32;10.00;99.90
20957;DHT22;10637;47.970;7.830;2023-12-20T13:46:34;9.90;99.90
20957;DHT22;10637;47.970;7.830;2023-12-20T13:51:36;9.70;99.90
20957;DHT22;10637;47.970;7.830;2023-12-20T13:56:38;9.40;99.90
20957;DHT22;10637;47.970;7.830;2023-12-20T14:01:56;9.40;99.90
20957;DHT22;10637;47.970;7.830;2023-12-20T14:06:58;9.30;99.90
20957;DHT22;10637;47.970;7.830;2023-12-20T14:12:00;9.10;99.90
20957;DHT22;10637;47.970;7.830;2023-12-20T14:17:02;8.90;99.90
20957;DHT22;10637;47.970;7.830;2023-12-20T14:22:05;8.50;99.90
20957;DHT22;10637;47.970;7.830;2023-12-20T14:27:08;8.20;99.90
20957;DHT22;10637;47.970;7.830;2023-12-20T14:32:10;8.00;99.90
20957;DHT22;10637;47.970;7.830;2023-12-20T14:37:12;7.90;99.90
20957;DHT22;10637;47.970;7.830;2023-12-20T14:42:14;7.80;99.90
20957;DHT22;10637;47.970;7.830;2023-12-20T14:47:16;7.90;99.90
20957;DHT22;10637;47.970;7.830;2023-12-20T14:52:18;7.70;99.90
20957;DHT22;10637;47.970;7.830;2023-12-20T14:57:23;7.60;99.90
20957;DHT22;10637;47.970;7.830;2023-12-20T15:02:24;7.60;99.90
20957;DHT22;10637;47.970;7.830;2023-12-20T15:07:26;7.50;99.90
20957;DHT22;10637;47.970;7.830;2023-12-20T15:12:29;7.40;99.90
20957;DHT22;10637;47.970;7.830;2023-12-20T15:17:31;7.30;99.90
20957;DHT22;10637;47.970;7.830;2023-12-20T15:22:32;7.00;99.90
20957;DHT22;10637;47.970;7.830;2023-12-20T15:27:38;6.80;99.90
20957;DHT22;10637;47.970;7.830;2023-12-20T15:32:40;6.80;99.90
20957;DHT22;10637;47.970;7.830;2023-12-20T15:37:42;6.70;99.90
20957;DHT22;10637;47.970;7.830;2023-12-20T15:42:45;6.70;99.90
20957;DHT22;10637;47.970;7.830;2023-12-20T15:47:46;6.60;99.90
20957;DHT22;10637;47.970;7.830;2023-12-20T15:52:49;6.50;99.90
20957;DHT22;10637;47.970;7.830;2023-12-20T15:57:50;6.50;99.90
20957;DHT22;10637;47.970;7.830;2023-12-20T16:02:56;6.50;99.90
20957;DHT22;10637;47.970;7.830;2023-12-20T16:07:57;6.40;99.90
20957;DHT22;10637;47.970;7.830;2023-12-20T16:12:59;6.30;99.90
20957;DHT22;10637;47.970;7.830;2023-12-20T16:18:01;6.20;99.90
20957;DHT22;10637;47.970;7.830;2023-12-20T16:23:04;6.20;99.90
20957;DHT22;10637;47.970;7.830;2023-12-20T16:28:05;6.10;99.90
20957;DHT22;10637;47.970;7.830;2023-12-20T16:33:07;6.10;99.90
20957;DHT22;10637;47.970;7.830;2023-12-20T16:38:09;6.20;99.90
20957;DHT22;10637;47.970;7.830;2023-12-20T16:43:11;6.10;99.90
20957;DHT22;10637;47.970;7.830;2023-12-20T16:48:13;6.10;99.90
20957;DHT22;10637;47.970;7.830;2023-12-20T16:53:15;6.00;99.90
20957;DHT22;10637;47.970;7.830;2023-12-20T16:58:17;6.00;99.90
20957;DHT22;10637;47.970;7.830;2023-12-20T17:03:20;6.00;99.90
20957;DHT22;10637;47.970;7.830;2023-12-20T17:08:22;5.90;99.90
20957;DHT22;10637;47.970;7.830;2023-12-20T17:13:24;6.00;99.90
20957;DHT22;10637;47.970;7.830;2023-12-20T17:18:26;5.90;99.90
20957;DHT22;10637;47.970;7.830;2023-12-20T17:23:28;5.90;99.90
20957;DHT22;10637;47.970;7.830;2023-12-20T17:28:30;5.90;99.90
20957;DHT22;10637;47.970;7.830;2023-12-20T17:33:32;5.90;99.90
20957;DHT22;10637;47.970;7.830;2023-12-20T17:38:34;5.90;99.90
20957;DHT22;10637;47.970;7.830;2023-12-20T17:43:38;5.90;99.90
20957;DHT22;10637;47.970;7.830;2023-12-20T17:48:40;5.90;99.90
20957;DHT22;10637;47.970;7.830;2023-12-20T17:53:42;5.90;99.90
20957;DHT22;10637;47.970;7.830;2023-12-20T17:58:44;5.90;99.90
20957;DHT22;10637;47.970;7.830;2023-12-20T18:03:46;6.00;99.90
20957;DHT22;10637;47.970;7.830;2023-12-20T18:08:48;5.90;99.90
20957;DHT22;10637;47.970;7.830;2023-12-20T18:13:50;5.90;99.90
20957;DHT22;10637;47.970;7.830;2023-12-20T18:18:51;6.00;99.90
20957;DHT22;10637;47.970;7.830;2023-12-20T18:23:54;6.00;99.90
20957;DHT22;10637;47.970;7.830;2023-12-20T18:29:08;6.00;99.90
20957;DHT22;10637;47.970;7.830;2023-12-20T18:34:10;6.00;99.90
20957;DHT22;10637;47.970;7.830;2023-12-20T18:39:12;6.00;99.90
20957;DHT22;10637;47.970;7.830;2023-12-20T18:44:15;6.00;99.90
20957;DHT22;10637;47.970;7.830;2023-12-20T18:49:17;6.10;99.90
20957;DHT22;10637;47.970;7.830;2023-12-20T18:54:19;6.10;99.90
20957;DHT22;10637;47.970;7.830;2023-12-20T18:59:22;6.10;99.90
20957;DHT22;10637;47.970;7.830;2023-12-20T19:04:24;6.10;99.90
20957;DHT22;10637;47.970;7.830;2023-12-20T19:09:26;6.20;99.90
20957;DHT22;10637;47.970;7.830;2023-12-20T19:14:28;6.10;99.90
20957;DHT22;10637;47.970;7.830;2023-12-20T19:19:30;6.20;99.90
20957;DHT22;10637;47.970;7.830;2023-12-20T19:24:32;6.20;99.90
20957;DHT22;10637;47.970;7.830;2023-12-20T19:29:33;6.10;99.90
20957;DHT22;10637;47.970;7.830;2023-12-20T19:34:35;6.10;99.90
20957;DHT22;10637;47.970;7.830;2023-12-20T19:39:37;6.10;99.90
20957;DHT22;10637;47.970;7.830;2023-12-20T19:44:39;6.20;99.90
20957;DHT22;10637;47.970;7.830;2023-12-20T19:49:41;6.20;99.90
20957;DHT22;10637;47.970;7.830;2023-12-20T19:54:43;6.20;99.90
20957;DHT22;10637;47.970;7.830;2023-12-20T19:59:45;6.20;99.90
20957;DHT22;10637;47.970;7.830;2023-12-20T20:04:47;6.30;99.90
20957;DHT22;10637;47.970;7.830;2023-12-20T20:09:49;6.30;99.90
20957;DHT22;10637;47.970;7.830;2023-12-20T20:14:51;6.30;99.90
20957;DHT22;10637;47.970;7.830;2023-12-20T20:19:55;6.30;99.90
20957;DHT22;10637;47.970;7.830;2023-12-20T20:24:57;6.30;99.90
20957;DHT22;10637;47.970;7.830;2023-12-20T20:29:59;6.20;99.90
20957;DHT22;10637;47.970;7.830;2023-12-20T20:35:00;6.20;99.90
20957;DHT22;10637;47.970;7.830;2023-12-20T20:40:02;6.20;99.90
20957;DHT22;10637;47.970;7.830;2023-12-20T20:45:05;6.20;99.90
20957;DHT22;10637;47.970;7.830;2023-12-20T20:50:08;6.20;99.90
20957;DHT22;10637;47.970;7.830;2023-12-20T20:55:11;6.20;99.90
20957;DHT22;10637;47.970;7.830;2023-12-20T21:00:14;6.30;99.90
20957;DHT22;10637;47.970;7.830;2023-12-20T21:05:16;6.30;99.90
20957;DHT22;10637;47.970;7.830;2023-12-20T21:10:18;6.30;99.90
20957;DHT22;10637;47.970;7.830;2023-12-20T21:15:22;6.30;99.90
20957;DHT22;10637;47.970;7.830;2023-12-20T21:20:24;6.30;99.90
20957;DHT22;10637;47.970;7.830;2023-12-20T21:25:25;6.30;99.90
20957;DHT22;10637;47.970;7.830;2023-12-20T21:30:27;6.30;99.90
20957;DHT22;10637;47.970;7.830;2023-12-20T21:35:29;6.30;99.90
20957;DHT22;10637;47.970;7.830;2023-12-20T21:40:31;6.40;99.90
20957;DHT22;10637;47.970;7.830;2023-12-20T21:45:33;6.40;99.90
20957;DHT22;10637;47.970;7.830;2023-12-20T21:50:35;6.40;99.90
20957;DHT22;10637;47.970;7.830;2023-12-20T21:55:40;6.40;99.90
20957;DHT22;10637;47.970;7.830;2023-12-20T22:00:42;6.40;99.90
20957;DHT22;10637;47.970;7.830;2023-12-20T22:05:44;6.40;99.90
20957;DHT22;10637;47.970;7.830;2023-12-20T22:10:46;6.40;99.90
20957;DHT22;10637;47.970;7.830;2023-12-20T22:15:48;6.50;99.90
20957;DHT22;10637;47.970;7.830;2023-12-20T22:20:51;6.50;99.90
20957;DHT22;10637;47.970;7.830;2023-12-20T22:25:53;6.50;99.90
20957;DHT22;10637;47.970;7.830;2023-12-20T22:30:55;6.50;99.90
20957;DHT22;10637;47.970;7.830;2023-12-20T22:35:57;6.60;99.90
20957;DHT22;10637;47.970;7.830;2023-12-20T22:40:59;6.50;99.90
20957;DHT22;10637;47.970;7.830;2023-12-20T22:46:01;6.50;99.90
20957;DHT22;10637;47.970;7.830;2023-12-20T22:51:06;6.50;99.90
20957;DHT22;10637;47.970;7.830;2023-12-20T22:56:09;6.50;99.90
20957;DHT22;10637;47.970;7.830;2023-12-20T23:01:10;6.50;99.90
20957;DHT22;10637;47.970;7.830;2023-12-20T23:06:12;6.60;99.90
20957;DHT22;10637;47.970;7.830;2023-12-20T23:11:15;6.60;99.90
20957;DHT22;10637;47.970;7.830;2023-12-20T23:16:17;6.60;99.90
20957;DHT22;10637;47.970;7.830;2023-12-20T23:21:19;6.60;99.90
20957;DHT22;10637;47.970;7.830;2023-12-20T23:26:20;6.60;99.90
20957;DHT22;10637;47.970;7.830;2023-12-20T23:31:24;6.60;99.90
20957;DHT22;10637;47.970;7.830;2023-12-20T23:36:26;6.60;99.90
20957;DHT22;10637;47.970;7.830;2023-12-20T23:41:28;6.60;99.90
20957;DHT22;10637;47.970;7.830;2023-12-20T23:46:30;6.60;99.90
20957;DHT22;10637;47.970;7.830;2023-12-20T23:51:32;6.60;99.90
20957;DHT22;10637;47.970;7.830;2023-12-20T23:56:36;6.70;99.90
